sensor_id;sensor_type;location;lat;lon;timestamp;pressure;altitude;pressure_sealevel;temperature;humidity
54194;BME280;40102;50.906;6.972;2022-12-18T00:01:32;102250.31;;;-3.68;74.37
54194;BME280;40102;50.906;6.972;2022-12-18T00:03:59;102253.75;;;-3.71;73.67
54194;BME280;40102;50.906;6.972;2022-12-18T00:06:26;102257.91;;;-3.77;73.05
54194;BME280;40102;50.906;6.972;2022-12-18T00:08:52;102258.84;;;-4.07;73.47
54194;BME280;40102;50.906;6.972;2022-12-18T00:11:21;102257.53;;;-4.22;74.48
54194;BME280;40102;50.906;6.972;2022-12-18T00:13:47;102251.41;;;-4.23;75.23
54194;BME280;40102;50.906;6.972;2022-12-18T00:16:15;102248.75;;;-4.25;75.49
54194;BME280;40102;50.906;6.972;2022-12-18T00:18:41;102260.22;;;-4.19;75.57
54194;BME280;40102;50.906;6.972;2022-12-18T00:21:08;102268.63;;;-4.30;75.32
54194;BME280;40102;50.906;6.972;2022-12-18T00:23:35;102266.78;;;-4.34;75.58
54194;BME280;40102;50.906;6.972;2022-12-18T00:26:03;102265.59;;;-4.43;76.12
54194;BME280;40102;50.906;6.972;2022-12-18T00:28:29;102262.63;;;-4.56;76.47
54194;BME280;40102;50.906;6.972;2022-12-18T00:31:05;102268.13;;;-4.75;77.40
54194;BME280;40102;50.906;6.972;2022-12-18T00:33:31;102270.53;;;-4.81;78.01
54194;BME280;40102;50.906;6.972;2022-12-18T00:36:07;102277.59;;;-4.78;77.96
54194;BME280;40102;50.906;6.972;2022-12-18T00:38:34;102273.94;;;-4.83;78.25
54194;BME280;40102;50.906;6.972;2022-12-18T00:40:59;102278.47;;;-4.78;78.31
54194;BME280;40102;50.906;6.972;2022-12-18T00:43:26;102282.03;;;-4.76;78.14
54194;BME280;40102;50.906;6.972;2022-12-18T00:45:51;102287.03;;;-4.82;78.05
54194;BME280;40102;50.906;6.972;2022-12-18T00:48:16;102284.38;;;-4.83;78.06
54194;BME280;40102;50.906;6.972;2022-12-18T00:50:42;102274.34;;;-4.71;78.51
54194;BME280;40102;50.906;6.972;2022-12-18T00:53:07;102275.53;;;-4.60;78.18
54194;BME280;40102;50.906;6.972;2022-12-18T00:55:37;102266.19;;;-4.53;77.89
54194;BME280;40102;50.906;6.972;2022-12-18T00:58:02;102252.13;;;-4.57;77.56
54194;BME280;40102;50.906;6.972;2022-12-18T01:00:28;102250.31;;;-4.60;77.63
54194;BME280;40102;50.906;6.972;2022-12-18T01:02:53;102265.84;;;-4.64;77.75
54194;BME280;40102;50.906;6.972;2022-12-18T01:05:19;102262.75;;;-4.79;78.22
54194;BME280;40102;50.906;6.972;2022-12-18T01:07:44;102261.97;;;-4.77;78.95
54194;BME280;40102;50.906;6.972;2022-12-18T01:10:11;102259.78;;;-4.63;78.45
54194;BME280;40102;50.906;6.972;2022-12-18T01:12:37;102254.38;;;-4.69;77.81
54194;BME280;40102;50.906;6.972;2022-12-18T01:15:05;102259.50;;;-4.72;77.77
54194;BME280;40102;50.906;6.972;2022-12-18T01:17:32;102259.50;;;-4.72;78.16
54194;BME280;40102;50.906;6.972;2022-12-18T01:19:58;102258.81;;;-4.67;77.82
54194;BME280;40102;50.906;6.972;2022-12-18T01:22:23;102252.97;;;-4.58;78.45
54194;BME280;40102;50.906;6.972;2022-12-18T01:24:48;102258.44;;;-4.50;77.38
54194;BME280;40102;50.906;6.972;2022-12-18T01:27:14;102257.28;;;-4.60;76.76
54194;BME280;40102;50.906;6.972;2022-12-18T01:29:39;102268.28;;;-4.70;77.07
54194;BME280;40102;50.906;6.972;2022-12-18T01:32:04;102272.47;;;-4.75;78.05
54194;BME280;40102;50.906;6.972;2022-12-18T01:34:30;102263.16;;;-4.67;78.18
54194;BME280;40102;50.906;6.972;2022-12-18T01:36:56;102265.66;;;-4.70;77.65
54194;BME280;40102;50.906;6.972;2022-12-18T01:39:22;102266.59;;;-4.68;77.50
54194;BME280;40102;50.906;6.972;2022-12-18T01:41:50;102267.25;;;-4.75;77.33
54194;BME280;40102;50.906;6.972;2022-12-18T01:49:47;102272.97;;;-4.87;78.00
54194;BME280;40102;50.906;6.972;2022-12-18T01:52:13;102266.84;;;-4.88;78.03
54194;BME280;40102;50.906;6.972;2022-12-18T01:54:39;102267.50;;;-4.95;78.14
54194;BME280;40102;50.906;6.972;2022-12-18T01:57:05;102265.13;;;-5.14;78.83
54194;BME280;40102;50.906;6.972;2022-12-18T01:59:32;102254.91;;;-5.08;79.11
54194;BME280;40102;50.906;6.972;2022-12-18T02:01:59;102250.47;;;-5.10;79.44
54194;BME280;40102;50.906;6.972;2022-12-18T02:04:28;102248.06;;;-5.04;79.08
54194;BME280;40102;50.906;6.972;2022-12-18T02:07:07;102247.94;;;-5.07;78.99
54194;BME280;40102;50.906;6.972;2022-12-18T02:10:00;102254.41;;;-4.96;79.10
54194;BME280;40102;50.906;6.972;2022-12-18T02:12:43;102259.66;;;-4.95;78.21
54194;BME280;40102;50.906;6.972;2022-12-18T02:17:54;102251.47;;;-4.78;78.11
54194;BME280;40102;50.906;6.972;2022-12-18T02:28:19;102258.81;;;-4.08;76.37
54194;BME280;40102;50.906;6.972;2022-12-18T02:30:47;102263.00;;;-4.13;74.64
54194;BME280;40102;50.906;6.972;2022-12-18T02:33:15;102266.50;;;-4.13;74.62
54194;BME280;40102;50.906;6.972;2022-12-18T02:35:41;102263.75;;;-4.17;74.16
54194;BME280;40102;50.906;6.972;2022-12-18T02:38:08;102267.78;;;-4.29;74.32
54194;BME280;40102;50.906;6.972;2022-12-18T02:40:34;102253.88;;;-4.28;74.64
54194;BME280;40102;50.906;6.972;2022-12-18T02:43:13;102242.25;;;-4.39;74.06
54194;BME280;40102;50.906;6.972;2022-12-18T02:45:50;102249.53;;;-4.57;74.77
54194;BME280;40102;50.906;6.972;2022-12-18T02:48:19;102239.91;;;-4.58;75.34
54194;BME280;40102;50.906;6.972;2022-12-18T02:53:49;102252.19;;;-4.84;75.81
54194;BME280;40102;50.906;6.972;2022-12-18T02:56:20;102245.69;;;-4.97;76.42
54194;BME280;40102;50.906;6.972;2022-12-18T02:59:05;102242.78;;;-5.06;76.96
54194;BME280;40102;50.906;6.972;2022-12-18T03:01:52;102244.22;;;-5.15;77.66
54194;BME280;40102;50.906;6.972;2022-12-18T03:06:58;102251.88;;;-5.22;77.34
54194;BME280;40102;50.906;6.972;2022-12-18T03:09:32;102252.66;;;-5.24;77.71
54194;BME280;40102;50.906;6.972;2022-12-18T03:12:38;102248.44;;;-5.19;78.10
54194;BME280;40102;50.906;6.972;2022-12-18T03:15:13;102241.13;;;-5.31;77.62
54194;BME280;40102;50.906;6.972;2022-12-18T03:17:46;102241.75;;;-5.38;77.99
54194;BME280;40102;50.906;6.972;2022-12-18T03:20:17;102233.00;;;-5.40;78.38
54194;BME280;40102;50.906;6.972;2022-12-18T03:22:45;102237.63;;;-5.31;78.68
54194;BME280;40102;50.906;6.972;2022-12-18T03:25:14;102228.81;;;-5.08;78.79
54194;BME280;40102;50.906;6.972;2022-12-18T03:27:46;102221.59;;;-4.88;78.42
54194;BME280;40102;50.906;6.972;2022-12-18T03:30:13;102220.38;;;-4.71;77.20
54194;BME280;40102;50.906;6.972;2022-12-18T03:32:50;102218.16;;;-4.59;76.70
54194;BME280;40102;50.906;6.972;2022-12-18T03:35:21;102213.41;;;-4.42;75.45
54194;BME280;40102;50.906;6.972;2022-12-18T03:37:48;102208.16;;;-4.43;74.68
54194;BME280;40102;50.906;6.972;2022-12-18T03:40:13;102202.44;;;-4.30;75.15
54194;BME280;40102;50.906;6.972;2022-12-18T03:45:23;102217.63;;;-4.47;74.11
54194;BME280;40102;50.906;6.972;2022-12-18T03:50:47;102217.88;;;-4.68;75.30
54194;BME280;40102;50.906;6.972;2022-12-18T03:53:43;102208.50;;;-4.61;75.28
54194;BME280;40102;50.906;6.972;2022-12-18T03:56:11;102211.16;;;-4.60;75.29
54194;BME280;40102;50.906;6.972;2022-12-18T03:58:40;102208.81;;;-4.50;75.72
54194;BME280;40102;50.906;6.972;2022-12-18T04:01:07;102206.09;;;-4.53;74.75
54194;BME280;40102;50.906;6.972;2022-12-18T04:03:35;102210.66;;;-4.46;74.98
54194;BME280;40102;50.906;6.972;2022-12-18T04:06:02;102210.25;;;-4.60;73.93
54194;BME280;40102;50.906;6.972;2022-12-18T04:08:28;102205.69;;;-4.67;74.36
54194;BME280;40102;50.906;6.972;2022-12-18T04:10:54;102207.59;;;-4.62;75.52
54194;BME280;40102;50.906;6.972;2022-12-18T04:13:38;102197.13;;;-4.63;74.54
54194;BME280;40102;50.906;6.972;2022-12-18T04:16:04;102186.41;;;-4.72;75.54
54194;BME280;40102;50.906;6.972;2022-12-18T04:18:30;102183.13;;;-4.65;75.12
54194;BME280;40102;50.906;6.972;2022-12-18T04:20:55;102192.91;;;-4.58;74.99
54194;BME280;40102;50.906;6.972;2022-12-18T04:23:21;102191.22;;;-4.56;74.77
54194;BME280;40102;50.906;6.972;2022-12-18T04:25:47;102186.41;;;-4.42;75.72
54194;BME280;40102;50.906;6.972;2022-12-18T04:28:12;102199.34;;;-4.47;73.12
54194;BME280;40102;50.906;6.972;2022-12-18T04:30:38;102196.38;;;-4.59;73.67
54194;BME280;40102;50.906;6.972;2022-12-18T04:33:03;102195.06;;;-4.73;74.23
54194;BME280;40102;50.906;6.972;2022-12-18T04:35:29;102198.44;;;-4.77;74.10
54194;BME280;40102;50.906;6.972;2022-12-18T04:37:55;102196.47;;;-4.84;74.23
54194;BME280;40102;50.906;6.972;2022-12-18T04:40:20;102193.72;;;-4.89;74.33
54194;BME280;40102;50.906;6.972;2022-12-18T04:42:46;102196.75;;;-5.04;74.41
54194;BME280;40102;50.906;6.972;2022-12-18T04:45:11;102197.25;;;-5.15;74.79
54194;BME280;40102;50.906;6.972;2022-12-18T04:47:37;102203.97;;;-5.24;75.33
54194;BME280;40102;50.906;6.972;2022-12-18T04:50:02;102201.22;;;-5.28;75.36
54194;BME280;40102;50.906;6.972;2022-12-18T04:52:28;102202.91;;;-5.30;76.30
54194;BME280;40102;50.906;6.972;2022-12-18T04:54:56;102202.47;;;-5.15;76.39
54194;BME280;40102;50.906;6.972;2022-12-18T04:57:21;102196.41;;;-5.14;75.44
54194;BME280;40102;50.906;6.972;2022-12-18T04:59:47;102200.66;;;-5.18;75.89
54194;BME280;40102;50.906;6.972;2022-12-18T05:02:12;102193.44;;;-5.27;75.49
54194;BME280;40102;50.906;6.972;2022-12-18T05:04:38;102204.66;;;-5.29;75.63
54194;BME280;40102;50.906;6.972;2022-12-18T05:07:03;102182.31;;;-5.48;75.78
54194;BME280;40102;50.906;6.972;2022-12-18T05:09:29;102185.88;;;-5.46;76.97
54194;BME280;40102;50.906;6.972;2022-12-18T05:11:54;102187.72;;;-5.42;76.89
54194;BME280;40102;50.906;6.972;2022-12-18T05:14:20;102178.72;;;-5.51;76.81
54194;BME280;40102;50.906;6.972;2022-12-18T05:16:45;102167.91;;;-5.64;77.21
54194;BME280;40102;50.906;6.972;2022-12-18T05:19:10;102166.97;;;-5.66;78.18
54194;BME280;40102;50.906;6.972;2022-12-18T05:21:36;102171.34;;;-5.65;77.88
54194;BME280;40102;50.906;6.972;2022-12-18T05:24:01;102174.16;;;-5.59;78.04
54194;BME280;40102;50.906;6.972;2022-12-18T05:26:26;102172.06;;;-5.69;77.89
54194;BME280;40102;50.906;6.972;2022-12-18T05:28:52;102179.06;;;-5.68;78.60
54194;BME280;40102;50.906;6.972;2022-12-18T05:31:19;102181.03;;;-5.61;78.53
54194;BME280;40102;50.906;6.972;2022-12-18T05:33:44;102182.91;;;-5.57;78.23
54194;BME280;40102;50.906;6.972;2022-12-18T05:36:10;102180.59;;;-5.47;78.32
54194;BME280;40102;50.906;6.972;2022-12-18T05:38:38;102183.81;;;-5.29;78.44
54194;BME280;40102;50.906;6.972;2022-12-18T05:41:04;102184.59;;;-5.32;77.37
54194;BME280;40102;50.906;6.972;2022-12-18T05:43:30;102195.72;;;-5.37;77.33
54194;BME280;40102;50.906;6.972;2022-12-18T05:45:56;102193.78;;;-5.43;77.51
54194;BME280;40102;50.906;6.972;2022-12-18T05:48:22;102208.94;;;-5.31;78.66
54194;BME280;40102;50.906;6.972;2022-12-18T05:50:49;102201.28;;;-5.27;77.66
54194;BME280;40102;50.906;6.972;2022-12-18T05:53:18;102212.59;;;-5.26;77.70
54194;BME280;40102;50.906;6.972;2022-12-18T05:55:44;102211.91;;;-5.19;78.37
54194;BME280;40102;50.906;6.972;2022-12-18T05:58:12;102215.28;;;-5.23;77.07
54194;BME280;40102;50.906;6.972;2022-12-18T06:00:40;102216.22;;;-5.21;78.20
54194;BME280;40102;50.906;6.972;2022-12-18T06:03:07;102220.28;;;-5.31;76.91
54194;BME280;40102;50.906;6.972;2022-12-18T06:05:39;102229.13;;;-5.26;77.98
54194;BME280;40102;50.906;6.972;2022-12-18T06:08:05;102229.34;;;-5.18;78.19
54194;BME280;40102;50.906;6.972;2022-12-18T06:10:31;102229.28;;;-5.19;76.74
54194;BME280;40102;50.906;6.972;2022-12-18T06:12:56;102239.56;;;-5.26;76.72
54194;BME280;40102;50.906;6.972;2022-12-18T06:15:22;102248.66;;;-5.40;76.97
54194;BME280;40102;50.906;6.972;2022-12-18T06:17:47;102241.56;;;-5.44;77.45
54194;BME280;40102;50.906;6.972;2022-12-18T06:20:13;102246.03;;;-5.40;77.57
54194;BME280;40102;50.906;6.972;2022-12-18T06:22:38;102248.28;;;-5.50;77.19
54194;BME280;40102;50.906;6.972;2022-12-18T06:25:04;102252.78;;;-5.46;77.43
54194;BME280;40102;50.906;6.972;2022-12-18T06:27:30;102254.28;;;-5.53;77.60
54194;BME280;40102;50.906;6.972;2022-12-18T06:29:55;102248.09;;;-5.57;77.93
54194;BME280;40102;50.906;6.972;2022-12-18T06:32:21;102252.31;;;-5.60;77.96
54194;BME280;40102;50.906;6.972;2022-12-18T06:34:46;102250.22;;;-5.70;77.89
54194;BME280;40102;50.906;6.972;2022-12-18T06:37:12;102252.59;;;-5.76;78.22
54194;BME280;40102;50.906;6.972;2022-12-18T06:39:37;102250.50;;;-5.87;78.73
54194;BME280;40102;50.906;6.972;2022-12-18T06:42:03;102246.97;;;-5.89;79.30
54194;BME280;40102;50.906;6.972;2022-12-18T06:44:28;102240.19;;;-5.83;79.42
54194;BME280;40102;50.906;6.972;2022-12-18T06:46:54;102250.16;;;-5.72;79.45
54194;BME280;40102;50.906;6.972;2022-12-18T06:49:21;102248.19;;;-5.79;78.96
54194;BME280;40102;50.906;6.972;2022-12-18T06:51:47;102242.41;;;-5.96;78.74
54194;BME280;40102;50.906;6.972;2022-12-18T06:54:12;102248.59;;;-5.92;79.15
54194;BME280;40102;50.906;6.972;2022-12-18T06:56:41;102233.81;;;-5.93;79.17
54194;BME280;40102;50.906;6.972;2022-12-18T06:59:06;102239.78;;;-5.96;79.31
54194;BME280;40102;50.906;6.972;2022-12-18T07:01:31;102242.50;;;-5.93;79.61
54194;BME280;40102;50.906;6.972;2022-12-18T07:03:57;102239.06;;;-5.92;79.52
54194;BME280;40102;50.906;6.972;2022-12-18T07:06:24;102225.28;;;-5.88;79.44
54194;BME280;40102;50.906;6.972;2022-12-18T07:08:50;102223.09;;;-5.75;80.09
54194;BME280;40102;50.906;6.972;2022-12-18T07:11:17;102224.50;;;-5.60;79.32
54194;BME280;40102;50.906;6.972;2022-12-18T07:13:43;102228.06;;;-5.58;78.60
54194;BME280;40102;50.906;6.972;2022-12-18T07:16:11;102230.41;;;-5.65;78.24
54194;BME280;40102;50.906;6.972;2022-12-18T07:18:37;102231.03;;;-5.72;78.60
54194;BME280;40102;50.906;6.972;2022-12-18T07:21:08;102236.81;;;-5.81;79.04
54194;BME280;40102;50.906;6.972;2022-12-18T07:23:34;102235.16;;;-5.79;79.34
54194;BME280;40102;50.906;6.972;2022-12-18T07:26:05;102236.75;;;-5.82;79.31
54194;BME280;40102;50.906;6.972;2022-12-18T07:28:32;102233.09;;;-5.89;79.78
54194;BME280;40102;50.906;6.972;2022-12-18T07:31:09;102230.72;;;-5.81;80.22
54194;BME280;40102;50.906;6.972;2022-12-18T07:33:34;102217.06;;;-5.74;79.82
54194;BME280;40102;50.906;6.972;2022-12-18T07:36:02;102214.50;;;-5.73;79.20
54194;BME280;40102;50.906;6.972;2022-12-18T07:38:29;102214.72;;;-5.67;79.26
54194;BME280;40102;50.906;6.972;2022-12-18T07:40:54;102229.47;;;-5.42;80.16
54194;BME280;40102;50.906;6.972;2022-12-18T07:43:20;102215.59;;;-5.41;78.34
54194;BME280;40102;50.906;6.972;2022-12-18T07:45:45;102222.81;;;-5.32;78.68
54194;BME280;40102;50.906;6.972;2022-12-18T07:48:10;102213.63;;;-5.21;78.02
54194;BME280;40102;50.906;6.972;2022-12-18T07:50:37;102216.97;;;-5.25;77.47
54194;BME280;40102;50.906;6.972;2022-12-18T07:53:02;102218.66;;;-5.27;78.26
54194;BME280;40102;50.906;6.972;2022-12-18T07:55:31;102220.22;;;-5.32;77.14
54194;BME280;40102;50.906;6.972;2022-12-18T07:57:56;102215.59;;;-5.41;77.54
54194;BME280;40102;50.906;6.972;2022-12-18T08:00:22;102218.41;;;-5.35;78.01
54194;BME280;40102;50.906;6.972;2022-12-18T08:02:47;102204.53;;;-5.34;78.44
54194;BME280;40102;50.906;6.972;2022-12-18T08:05:12;102211.72;;;-5.27;77.97
54194;BME280;40102;50.906;6.972;2022-12-18T08:07:39;102198.50;;;-5.31;77.63
54194;BME280;40102;50.906;6.972;2022-12-18T08:10:05;102188.28;;;-5.25;78.15
54194;BME280;40102;50.906;6.972;2022-12-18T08:12:31;102189.22;;;-5.23;77.84
54194;BME280;40102;50.906;6.972;2022-12-18T08:14:56;102195.53;;;-5.15;77.89
54194;BME280;40102;50.906;6.972;2022-12-18T08:17:21;102193.84;;;-5.13;77.98
54194;BME280;40102;50.906;6.972;2022-12-18T08:19:47;102192.31;;;-5.06;78.32
54194;BME280;40102;50.906;6.972;2022-12-18T08:22:13;102181.22;;;-4.99;77.59
54194;BME280;40102;50.906;6.972;2022-12-18T08:24:39;102182.34;;;-4.91;77.77
54194;BME280;40102;50.906;6.972;2022-12-18T08:27:05;102172.97;;;-4.84;77.08
54194;BME280;40102;50.906;6.972;2022-12-18T08:29:30;102170.69;;;-4.74;77.45
54194;BME280;40102;50.906;6.972;2022-12-18T08:31:57;102174.38;;;-4.67;77.31
54194;BME280;40102;50.906;6.972;2022-12-18T08:34:22;102163.28;;;-3.28;100.00
54194;BME280;40102;50.906;6.972;2022-12-18T08:36:47;102161.59;;;-2.01;100.00
54194;BME280;40102;50.906;6.972;2022-12-18T08:39:13;102155.88;;;-1.79;100.00
54194;BME280;40102;50.906;6.972;2022-12-18T08:41:38;102148.16;;;-2.18;76.46
54194;BME280;40102;50.906;6.972;2022-12-18T08:44:04;102147.91;;;-2.74;71.76
54194;BME280;40102;50.906;6.972;2022-12-18T08:46:48;102155.59;;;-3.20;71.39
54194;BME280;40102;50.906;6.972;2022-12-18T08:49:16;102157.03;;;-3.69;72.31
54194;BME280;40102;50.906;6.972;2022-12-18T08:51:41;102146.41;;;-4.08;74.73
54194;BME280;40102;50.906;6.972;2022-12-18T08:54:07;102148.88;;;-4.14;76.34
54194;BME280;40102;50.906;6.972;2022-12-18T08:56:33;102148.75;;;-4.19;76.65
54194;BME280;40102;50.906;6.972;2022-12-18T08:58:59;102138.84;;;-4.31;76.80
54194;BME280;40102;50.906;6.972;2022-12-18T09:01:24;102139.81;;;-4.27;77.30
54194;BME280;40102;50.906;6.972;2022-12-18T09:03:50;102145.75;;;-4.33;77.17
54194;BME280;40102;50.906;6.972;2022-12-18T09:06:17;102145.13;;;-4.24;77.74
54194;BME280;40102;50.906;6.972;2022-12-18T09:08:43;102148.59;;;-4.25;77.10
54194;BME280;40102;50.906;6.972;2022-12-18T09:11:23;102149.47;;;-4.25;77.65
54194;BME280;40102;50.906;6.972;2022-12-18T09:13:50;102149.44;;;-4.26;77.61
54194;BME280;40102;50.906;6.972;2022-12-18T09:16:16;102151.47;;;-4.14;77.50
54194;BME280;40102;50.906;6.972;2022-12-18T09:18:45;102160.28;;;-4.11;77.84
54194;BME280;40102;50.906;6.972;2022-12-18T09:21:15;102147.38;;;-4.05;77.28
54194;BME280;40102;50.906;6.972;2022-12-18T09:23:42;102154.25;;;-4.08;77.25
54194;BME280;40102;50.906;6.972;2022-12-18T09:26:10;102150.94;;;-4.03;76.99
54194;BME280;40102;50.906;6.972;2022-12-18T09:28:35;102133.41;;;-4.07;77.61
54194;BME280;40102;50.906;6.972;2022-12-18T09:31:10;102129.81;;;-4.10;77.61
54194;BME280;40102;50.906;6.972;2022-12-18T09:33:43;102134.59;;;-3.94;78.08
54194;BME280;40102;50.906;6.972;2022-12-18T09:36:16;102124.19;;;-3.93;77.37
54194;BME280;40102;50.906;6.972;2022-12-18T09:38:43;102134.06;;;-3.81;77.02
54194;BME280;40102;50.906;6.972;2022-12-18T09:44:20;102126.19;;;-3.82;76.95
54194;BME280;40102;50.906;6.972;2022-12-18T09:46:48;102109.72;;;-3.78;76.64
54194;BME280;40102;50.906;6.972;2022-12-18T09:49:18;102105.72;;;-3.64;76.54
54194;BME280;40102;50.906;6.972;2022-12-18T09:51:50;102105.03;;;-3.57;76.19
54194;BME280;40102;50.906;6.972;2022-12-18T09:54:35;102107.03;;;-3.45;76.03
54194;BME280;40102;50.906;6.972;2022-12-18T09:57:02;102104.63;;;-3.36;75.87
54194;BME280;40102;50.906;6.972;2022-12-18T09:59:33;102084.75;;;-3.28;75.30
54194;BME280;40102;50.906;6.972;2022-12-18T10:02:15;102084.91;;;-3.22;74.62
54194;BME280;40102;50.906;6.972;2022-12-18T10:04:42;102088.38;;;-3.23;74.72
54194;BME280;40102;50.906;6.972;2022-12-18T10:07:19;102085.91;;;-3.15;74.75
54194;BME280;40102;50.906;6.972;2022-12-18T10:17:53;102085.31;;;-3.04;73.88
54194;BME280;40102;50.906;6.972;2022-12-18T10:20:38;102071.25;;;-3.07;74.11
54194;BME280;40102;50.906;6.972;2022-12-18T10:25:40;102053.97;;;-2.99;74.25
54194;BME280;40102;50.906;6.972;2022-12-18T10:28:12;102056.66;;;-2.96;74.33
54194;BME280;40102;50.906;6.972;2022-12-18T10:30:39;102059.31;;;-2.95;74.17
54194;BME280;40102;50.906;6.972;2022-12-18T10:33:05;102068.09;;;-2.92;74.13
54194;BME280;40102;50.906;6.972;2022-12-18T10:35:30;102075.97;;;-2.91;73.97
54194;BME280;40102;50.906;6.972;2022-12-18T10:40:47;102064.75;;;-2.85;73.58
54194;BME280;40102;50.906;6.972;2022-12-18T10:43:14;102058.78;;;-2.78;73.58
54194;BME280;40102;50.906;6.972;2022-12-18T10:45:40;102058.97;;;-2.68;73.57
54194;BME280;40102;50.906;6.972;2022-12-18T10:48:22;102049.41;;;-2.66;73.22
54194;BME280;40102;50.906;6.972;2022-12-18T10:50:49;102055.63;;;-2.61;73.31
54194;BME280;40102;50.906;6.972;2022-12-18T10:53:24;102049.63;;;-2.55;73.41
54194;BME280;40102;50.906;6.972;2022-12-18T10:55:52;102042.72;;;-2.51;72.91
54194;BME280;40102;50.906;6.972;2022-12-18T10:58:28;102033.13;;;-2.51;72.69
54194;BME280;40102;50.906;6.972;2022-12-18T11:01:16;102029.72;;;-2.45;72.55
54194;BME280;40102;50.906;6.972;2022-12-18T11:06:22;102016.69;;;-2.42;71.88
54194;BME280;40102;50.906;6.972;2022-12-18T11:09:19;102023.66;;;-2.43;71.78
54194;BME280;40102;50.906;6.972;2022-12-18T11:11:54;102022.00;;;-2.38;71.39
54194;BME280;40102;50.906;6.972;2022-12-18T11:16:51;102025.63;;;-2.30;71.52
54194;BME280;40102;50.906;6.972;2022-12-18T11:19:37;102015.19;;;-2.28;71.33
54194;BME280;40102;50.906;6.972;2022-12-18T11:22:31;102033.56;;;-2.25;70.75
54194;BME280;40102;50.906;6.972;2022-12-18T11:25:04;102027.47;;;-2.25;70.95
54194;BME280;40102;50.906;6.972;2022-12-18T11:27:31;102026.66;;;-2.21;70.74
54194;BME280;40102;50.906;6.972;2022-12-18T11:30:21;102021.34;;;-2.24;70.93
54194;BME280;40102;50.906;6.972;2022-12-18T11:32:49;102029.31;;;-2.18;71.20
54194;BME280;40102;50.906;6.972;2022-12-18T11:35:26;102000.50;;;-2.17;70.66
54194;BME280;40102;50.906;6.972;2022-12-18T11:37:57;102004.03;;;-2.15;70.37
54194;BME280;40102;50.906;6.972;2022-12-18T11:40:37;101992.69;;;-2.15;70.56
54194;BME280;40102;50.906;6.972;2022-12-18T11:43:28;101998.78;;;-2.16;70.37
54194;BME280;40102;50.906;6.972;2022-12-18T11:46:00;101997.88;;;-2.17;70.26
54194;BME280;40102;50.906;6.972;2022-12-18T11:48:34;101989.16;;;-2.17;70.05
54194;BME280;40102;50.906;6.972;2022-12-18T11:51:04;102006.56;;;-2.21;70.84
54194;BME280;40102;50.906;6.972;2022-12-18T11:53:34;101983.78;;;-2.25;70.72
54194;BME280;40102;50.906;6.972;2022-12-18T12:01:15;101956.81;;;-2.18;71.05
54194;BME280;40102;50.906;6.972;2022-12-18T12:09:49;101972.53;;;-2.18;70.36
54194;BME280;40102;50.906;6.972;2022-12-18T12:26:33;101927.06;;;-2.20;70.92
54194;BME280;40102;50.906;6.972;2022-12-18T12:31:43;101946.25;;;-2.22;71.06
54194;BME280;40102;50.906;6.972;2022-12-18T12:39:33;101942.78;;;-2.20;71.23
54194;BME280;40102;50.906;6.972;2022-12-18T12:41:59;101932.28;;;-2.21;71.51
54194;BME280;40102;50.906;6.972;2022-12-18T12:44:51;101934.00;;;-2.23;71.66
54194;BME280;40102;50.906;6.972;2022-12-18T12:47:25;101932.25;;;-2.24;71.85
54194;BME280;40102;50.906;6.972;2022-12-18T12:49:52;101930.59;;;-2.18;72.14
54194;BME280;40102;50.906;6.972;2022-12-18T12:52:28;101923.63;;;-2.16;70.87
54194;BME280;40102;50.906;6.972;2022-12-18T12:54:56;101928.06;;;-2.12;71.02
54194;BME280;40102;50.906;6.972;2022-12-18T12:57:37;101932.44;;;-2.11;70.58
54194;BME280;40102;50.906;6.972;2022-12-18T13:00:19;101935.06;;;-2.12;71.06
54194;BME280;40102;50.906;6.972;2022-12-18T13:03:00;101921.13;;;-2.08;71.30
54194;BME280;40102;50.906;6.972;2022-12-18T13:05:54;101922.91;;;-2.07;70.87
54194;BME280;40102;50.906;6.972;2022-12-18T13:08:52;101926.41;;;-2.07;71.23
54194;BME280;40102;50.906;6.972;2022-12-18T13:14:26;101939.47;;;-2.08;70.38
54194;BME280;40102;50.906;6.972;2022-12-18T13:17:24;101942.03;;;-2.13;70.74
54194;BME280;40102;50.906;6.972;2022-12-18T13:22:34;101924.66;;;-2.06;71.40
54194;BME280;40102;50.906;6.972;2022-12-18T13:25:00;101928.22;;;-2.03;71.17
54194;BME280;40102;50.906;6.972;2022-12-18T13:35:39;101922.91;;;-2.07;71.21
54194;BME280;40102;50.906;6.972;2022-12-18T13:46:42;101915.88;;;-2.08;72.12
54194;BME280;40102;50.906;6.972;2022-12-18T13:51:50;101915.13;;;-2.01;71.98
54194;BME280;40102;50.906;6.972;2022-12-18T13:54:31;101904.69;;;-1.98;71.84
54194;BME280;40102;50.906;6.972;2022-12-18T13:56:58;101903.84;;;-1.94;71.58
54194;BME280;40102;50.906;6.972;2022-12-18T13:59:37;101896.84;;;-1.95;71.14
54194;BME280;40102;50.906;6.972;2022-12-18T14:02:15;101876.81;;;-1.90;71.18
54194;BME280;40102;50.906;6.972;2022-12-18T14:04:40;101905.66;;;-1.90;70.84
54194;BME280;40102;50.906;6.972;2022-12-18T14:07:18;101903.03;;;-1.91;71.37
54194;BME280;40102;50.906;6.972;2022-12-18T14:09:55;101893.44;;;-1.89;70.68
54194;BME280;40102;50.906;6.972;2022-12-18T14:12:27;101896.00;;;-1.92;70.93
54194;BME280;40102;50.906;6.972;2022-12-18T14:15:23;101892.50;;;-1.93;71.35
54194;BME280;40102;50.906;6.972;2022-12-18T14:21:21;101890.59;;;-2.05;71.25
54194;BME280;40102;50.906;6.972;2022-12-18T14:23:46;101875.75;;;-2.04;71.84
54194;BME280;40102;50.906;6.972;2022-12-18T14:26:29;101864.44;;;-2.00;72.27
54194;BME280;40102;50.906;6.972;2022-12-18T14:28:59;101884.59;;;-1.96;71.52
54194;BME280;40102;50.906;6.972;2022-12-18T14:31:30;101883.78;;;-1.92;72.26
54194;BME280;40102;50.906;6.972;2022-12-18T14:33:55;101876.91;;;-1.84;72.00
54194;BME280;40102;50.906;6.972;2022-12-18T14:36:26;101875.19;;;-1.80;72.40
54194;BME280;40102;50.906;6.972;2022-12-18T14:38:56;101862.03;;;-1.83;72.29
54194;BME280;40102;50.906;6.972;2022-12-18T14:41:22;101862.09;;;-1.79;72.76
54194;BME280;40102;50.906;6.972;2022-12-18T14:43:51;101862.09;;;-1.80;72.78
54194;BME280;40102;50.906;6.972;2022-12-18T14:48:57;101861.09;;;-1.88;72.25
54194;BME280;40102;50.906;6.972;2022-12-18T14:51:27;101864.47;;;-1.97;72.44
54194;BME280;40102;50.906;6.972;2022-12-18T14:56:23;101861.72;;;-2.08;72.98
54194;BME280;40102;50.906;6.972;2022-12-18T14:59:13;101862.56;;;-2.10;73.40